sensor_id;sensor_type;location;lat;lon;timestamp;temperature;humidity
58413;DHT22;44209;52.952;6.790;2023-02-22T00:00:59;8.90;99.90
58413;DHT22;44209;52.952;6.790;2023-02-22T00:03:29;8.80;99.90
58413;DHT22;44209;52.952;6.790;2023-02-22T00:05:58;8.80;99.90
58413;DHT22;44209;52.952;6.790;2023-02-22T00:08:26;8.80;99.90
58413;DHT22;44209;52.952;6.790;2023-02-22T00:11:06;8.80;99.90
58413;DHT22;44209;52.952;6.790;2023-02-22T00:13:36;8.80;99.90
58413;DHT22;44209;52.952;6.790;2023-02-22T00:16:03;8.80;99.90
58413;DHT22;44209;52.952;6.790;2023-02-22T00:18:29;8.80;99.90
58413;DHT22;44209;52.952;6.790;2023-02-22T00:20:55;8.80;99.90
58413;DHT22;44209;52.952;6.790;2023-02-22T00:23:25;8.80;99.90
58413;DHT22;44209;52.952;6.790;2023-02-22T00:25:53;8.80;99.90
58413;DHT22;44209;52.952;6.790;2023-02-22T00:28:19;8.80;99.90
58413;DHT22;44209;52.952;6.790;2023-02-22T00:30:45;8.80;99.90
58413;DHT22;44209;52.952;6.790;2023-02-22T00:33:14;8.80;99.90
58413;DHT22;44209;52.952;6.790;2023-02-22T00:35:40;8.80;99.90
58413;DHT22;44209;52.952;6.790;2023-02-22T00:38:12;8.70;99.90
58413;DHT22;44209;52.952;6.790;2023-02-22T00:40:38;8.70;99.90
58413;DHT22;44209;52.952;6.790;2023-02-22T00:43:05;8.70;99.90
58413;DHT22;44209;52.952;6.790;2023-02-22T00:45:33;8.70;99.90
58413;DHT22;44209;52.952;6.790;2023-02-22T00:47:59;8.70;99.90
58413;DHT22;44209;52.952;6.790;2023-02-22T00:50:27;8.70;99.90
58413;DHT22;44209;52.952;6.790;2023-02-22T00:52:54;8.70;99.90
58413;DHT22;44209;52.952;6.790;2023-02-22T00:55:32;8.70;99.90
58413;DHT22;44209;52.952;6.790;2023-02-22T00:57:59;8.70;99.90
58413;DHT22;44209;52.952;6.790;2023-02-22T01:00:36;8.70;99.90
58413;DHT22;44209;52.952;6.790;2023-02-22T01:03:03;8.70;99.90
58413;DHT22;44209;52.952;6.790;2023-02-22T01:05:30;8.70;99.90
58413;DHT22;44209;52.952;6.790;2023-02-22T01:07:57;8.70;99.90
58413;DHT22;44209;52.952;6.790;2023-02-22T01:10:25;8.70;99.90
58413;DHT22;44209;52.952;6.790;2023-02-22T01:12:52;8.60;99.90
58413;DHT22;44209;52.952;6.790;2023-02-22T01:15:22;8.70;99.90
58413;DHT22;44209;52.952;6.790;2023-02-22T01:17:50;8.70;99.90
58413;DHT22;44209;52.952;6.790;2023-02-22T01:20:18;8.70;99.90
58413;DHT22;44209;52.952;6.790;2023-02-22T01:22:47;8.70;99.90
58413;DHT22;44209;52.952;6.790;2023-02-22T01:25:19;8.70;99.90
58413;DHT22;44209;52.952;6.790;2023-02-22T01:27:46;8.70;99.90
58413;DHT22;44209;52.952;6.790;2023-02-22T01:30:13;8.70;99.90
58413;DHT22;44209;52.952;6.790;2023-02-22T01:32:40;8.70;99.90
58413;DHT22;44209;52.952;6.790;2023-02-22T01:35:10;8.60;99.90
58413;DHT22;44209;52.952;6.790;2023-02-22T01:37:38;8.60;99.90
58413;DHT22;44209;52.952;6.790;2023-02-22T01:40:08;8.60;99.90
58413;DHT22;44209;52.952;6.790;2023-02-22T01:42:34;8.60;99.90
58413;DHT22;44209;52.952;6.790;2023-02-22T01:45:29;8.60;99.90
58413;DHT22;44209;52.952;6.790;2023-02-22T01:50:33;8.60;99.90
58413;DHT22;44209;52.952;6.790;2023-02-22T01:53:00;8.70;99.90
58413;DHT22;44209;52.952;6.790;2023-02-22T01:55:27;8.60;99.90
58413;DHT22;44209;52.952;6.790;2023-02-22T01:57:53;8.60;99.90
58413;DHT22;44209;52.952;6.790;2023-02-22T02:00:20;8.60;99.90
58413;DHT22;44209;52.952;6.790;2023-02-22T02:03:08;8.60;99.90
58413;DHT22;44209;52.952;6.790;2023-02-22T02:05:36;8.60;99.90
58413;DHT22;44209;52.952;6.790;2023-02-22T02:08:16;8.60;99.90
58413;DHT22;44209;52.952;6.790;2023-02-22T02:10:45;8.60;99.90
58413;DHT22;44209;52.952;6.790;2023-02-22T02:13:12;8.60;99.90
58413;DHT22;44209;52.952;6.790;2023-02-22T02:15:37;8.60;99.90
58413;DHT22;44209;52.952;6.790;2023-02-22T02:18:09;8.60;99.90
58413;DHT22;44209;52.952;6.790;2023-02-22T02:26:58;8.60;99.90
58413;DHT22;44209;52.952;6.790;2023-02-22T02:29:53;8.60;99.90
58413;DHT22;44209;52.952;6.790;2023-02-22T02:32:52;8.60;99.90
58413;DHT22;44209;52.952;6.790;2023-02-22T02:35:30;8.60;99.90
58413;DHT22;44209;52.952;6.790;2023-02-22T02:38:27;8.60;99.90
58413;DHT22;44209;52.952;6.790;2023-02-22T02:43:55;8.50;99.90
58413;DHT22;44209;52.952;6.790;2023-02-22T02:48:58;8.50;99.90
58413;DHT22;44209;52.952;6.790;2023-02-22T02:51:29;8.60;99.90
58413;DHT22;44209;52.952;6.790;2023-02-22T02:53:57;8.60;99.90
58413;DHT22;44209;52.952;6.790;2023-02-22T02:56:24;8.50;99.90
58413;DHT22;44209;52.952;6.790;2023-02-22T02:58:51;8.60;99.90
58413;DHT22;44209;52.952;6.790;2023-02-22T03:11:58;8.60;99.90
58413;DHT22;44209;52.952;6.790;2023-02-22T03:14:41;8.50;99.90
58413;DHT22;44209;52.952;6.790;2023-02-22T03:17:17;8.60;99.90
58413;DHT22;44209;52.952;6.790;2023-02-22T03:22:23;8.60;99.90
58413;DHT22;44209;52.952;6.790;2023-02-22T03:27:46;8.60;99.90
58413;DHT22;44209;52.952;6.790;2023-02-22T03:30:26;8.50;99.90
58413;DHT22;44209;52.952;6.790;2023-02-22T03:33:00;8.50;99.90
58413;DHT22;44209;52.952;6.790;2023-02-22T03:35:32;8.50;99.90
58413;DHT22;44209;52.952;6.790;2023-02-22T03:38:02;8.50;99.90
58413;DHT22;44209;52.952;6.790;2023-02-22T03:40:40;8.50;99.90
58413;DHT22;44209;52.952;6.790;2023-02-22T03:43:12;8.50;99.90
58413;DHT22;44209;52.952;6.790;2023-02-22T03:45:41;8.50;99.90
58413;DHT22;44209;52.952;6.790;2023-02-22T03:48:34;8.40;99.90
58413;DHT22;44209;52.952;6.790;2023-02-22T03:51:02;8.40;99.90
58413;DHT22;44209;52.952;6.790;2023-02-22T03:53:30;8.40;99.90
58413;DHT22;44209;52.952;6.790;2023-02-22T03:55:57;8.40;99.90
58413;DHT22;44209;52.952;6.790;2023-02-22T03:58:27;8.40;99.90
58413;DHT22;44209;52.952;6.790;2023-02-22T04:00:54;8.40;99.90
58413;DHT22;44209;52.952;6.790;2023-02-22T04:03:20;8.40;99.90
58413;DHT22;44209;52.952;6.790;2023-02-22T04:05:46;8.40;99.90
58413;DHT22;44209;52.952;6.790;2023-02-22T04:08:12;8.40;99.90
58413;DHT22;44209;52.952;6.790;2023-02-22T04:10:38;8.40;99.90
58413;DHT22;44209;52.952;6.790;2023-02-22T04:13:04;8.30;99.90
58413;DHT22;44209;52.952;6.790;2023-02-22T04:15:32;8.30;99.90
58413;DHT22;44209;52.952;6.790;2023-02-22T04:17:58;8.30;99.90
58413;DHT22;44209;52.952;6.790;2023-02-22T04:20:23;8.30;99.90
58413;DHT22;44209;52.952;6.790;2023-02-22T04:22:51;8.30;99.90
58413;DHT22;44209;52.952;6.790;2023-02-22T04:25:18;8.30;99.90
58413;DHT22;44209;52.952;6.790;2023-02-22T04:27:44;8.30;99.90
58413;DHT22;44209;52.952;6.790;2023-02-22T04:30:10;8.30;99.90
58413;DHT22;44209;52.952;6.790;2023-02-22T04:32:37;8.40;99.90
58413;DHT22;44209;52.952;6.790;2023-02-22T04:35:03;8.30;99.90
58413;DHT22;44209;52.952;6.790;2023-02-22T04:37:29;8.40;99.90
58413;DHT22;44209;52.952;6.790;2023-02-22T04:39:55;8.30;99.90
58413;DHT22;44209;52.952;6.790;2023-02-22T04:42:21;8.30;99.90
58413;DHT22;44209;52.952;6.790;2023-02-22T04:44:47;8.30;99.90
58413;DHT22;44209;52.952;6.790;2023-02-22T04:47:13;8.30;99.90
58413;DHT22;44209;52.952;6.790;2023-02-22T04:49:39;8.30;99.90
58413;DHT22;44209;52.952;6.790;2023-02-22T04:52:04;8.30;99.90
58413;DHT22;44209;52.952;6.790;2023-02-22T04:54:30;8.20;99.90
58413;DHT22;44209;52.952;6.790;2023-02-22T04:56:56;8.20;99.90
58413;DHT22;44209;52.952;6.790;2023-02-22T04:59:22;8.20;99.90
58413;DHT22;44209;52.952;6.790;2023-02-22T05:01:47;8.20;99.90
58413;DHT22;44209;52.952;6.790;2023-02-22T05:04:13;8.20;99.90
58413;DHT22;44209;52.952;6.790;2023-02-22T05:06:39;8.20;99.90
58413;DHT22;44209;52.952;6.790;2023-02-22T05:09:04;8.20;99.90
58413;DHT22;44209;52.952;6.790;2023-02-22T05:11:30;8.20;99.90
58413;DHT22;44209;52.952;6.790;2023-02-22T05:13:56;8.10;99.90
58413;DHT22;44209;52.952;6.790;2023-02-22T05:16:22;8.20;99.90
58413;DHT22;44209;52.952;6.790;2023-02-22T05:18:47;8.10;99.90
58413;DHT22;44209;52.952;6.790;2023-02-22T05:21:13;8.10;99.90
58413;DHT22;44209;52.952;6.790;2023-02-22T05:23:39;8.10;99.90
58413;DHT22;44209;52.952;6.790;2023-02-22T05:26:05;8.10;99.90
58413;DHT22;44209;52.952;6.790;2023-02-22T05:28:31;8.10;99.90
58413;DHT22;44209;52.952;6.790;2023-02-22T05:30:57;8.00;99.90
58413;DHT22;44209;52.952;6.790;2023-02-22T05:33:23;8.10;99.90
58413;DHT22;44209;52.952;6.790;2023-02-22T05:35:48;8.10;99.90
58413;DHT22;44209;52.952;6.790;2023-02-22T05:38:15;8.10;99.90
58413;DHT22;44209;52.952;6.790;2023-02-22T05:40:41;8.10;99.90
58413;DHT22;44209;52.952;6.790;2023-02-22T05:43:07;8.00;99.90
58413;DHT22;44209;52.952;6.790;2023-02-22T05:45:33;8.00;99.90
58413;DHT22;44209;52.952;6.790;2023-02-22T05:48:00;8.00;99.90
58413;DHT22;44209;52.952;6.790;2023-02-22T05:50:26;8.00;99.90
58413;DHT22;44209;52.952;6.790;2023-02-22T05:52:53;8.00;99.90
58413;DHT22;44209;52.952;6.790;2023-02-22T05:55:21;8.00;99.90
58413;DHT22;44209;52.952;6.790;2023-02-22T05:57:47;8.00;99.90
58413;DHT22;44209;52.952;6.790;2023-02-22T06:00:17;7.90;99.90
58413;DHT22;44209;52.952;6.790;2023-02-22T06:02:43;8.00;99.90
58413;DHT22;44209;52.952;6.790;2023-02-22T06:05:09;7.90;99.90
58413;DHT22;44209;52.952;6.790;2023-02-22T06:07:34;7.90;99.90
58413;DHT22;44209;52.952;6.790;2023-02-22T06:10:00;7.90;99.90
58413;DHT22;44209;52.952;6.790;2023-02-22T06:12:26;7.90;99.90
58413;DHT22;44209;52.952;6.790;2023-02-22T06:14:51;7.90;99.90
58413;DHT22;44209;52.952;6.790;2023-02-22T06:17:17;7.90;99.90
58413;DHT22;44209;52.952;6.790;2023-02-22T06:19:43;7.90;99.90
58413;DHT22;44209;52.952;6.790;2023-02-22T06:22:16;7.90;99.90
58413;DHT22;44209;52.952;6.790;2023-02-22T06:24:41;7.90;99.90
58413;DHT22;44209;52.952;6.790;2023-02-22T06:27:07;7.90;99.90
58413;DHT22;44209;52.952;6.790;2023-02-22T06:29:33;7.90;99.90
58413;DHT22;44209;52.952;6.790;2023-02-22T06:31:58;7.80;99.90
58413;DHT22;44209;52.952;6.790;2023-02-22T06:34:24;7.80;99.90
58413;DHT22;44209;52.952;6.790;2023-02-22T06:36:50;7.80;99.90
58413;DHT22;44209;52.952;6.790;2023-02-22T06:39:16;7.80;99.90
58413;DHT22;44209;52.952;6.790;2023-02-22T06:41:44;7.80;99.90
58413;DHT22;44209;52.952;6.790;2023-02-22T06:44:12;7.80;99.90
58413;DHT22;44209;52.952;6.790;2023-02-22T06:46:38;7.80;99.90
58413;DHT22;44209;52.952;6.790;2023-02-22T06:49:04;7.80;99.90
58413;DHT22;44209;52.952;6.790;2023-02-22T06:51:35;7.80;99.90
58413;DHT22;44209;52.952;6.790;2023-02-22T06:54:01;7.70;99.90
58413;DHT22;44209;52.952;6.790;2023-02-22T06:56:27;7.70;99.90
58413;DHT22;44209;52.952;6.790;2023-02-22T06:58:52;7.70;99.90
58413;DHT22;44209;52.952;6.790;2023-02-22T07:01:18;7.80;99.90
58413;DHT22;44209;52.952;6.790;2023-02-22T07:03:44;7.80;99.90
58413;DHT22;44209;52.952;6.790;2023-02-22T07:06:10;7.70;99.90
58413;DHT22;44209;52.952;6.790;2023-02-22T07:08:35;7.70;99.90
58413;DHT22;44209;52.952;6.790;2023-02-22T07:11:02;7.70;99.90
58413;DHT22;44209;52.952;6.790;2023-02-22T07:13:28;7.80;99.90
58413;DHT22;44209;52.952;6.790;2023-02-22T07:15:54;7.80;99.90
58413;DHT22;44209;52.952;6.790;2023-02-22T07:18:19;7.80;99.90
58413;DHT22;44209;52.952;6.790;2023-02-22T07:20:45;7.80;99.90
58413;DHT22;44209;52.952;6.790;2023-02-22T07:23:15;7.80;99.90
58413;DHT22;44209;52.952;6.790;2023-02-22T07:25:41;7.80;99.90
58413;DHT22;44209;52.952;6.790;2023-02-22T07:28:07;7.80;99.90
58413;DHT22;44209;52.952;6.790;2023-02-22T07:30:35;7.90;99.90
58413;DHT22;44209;52.952;6.790;2023-02-22T07:33:06;7.90;99.90
58413;DHT22;44209;52.952;6.790;2023-02-22T07:35:37;7.90;99.90
58413;DHT22;44209;52.952;6.790;2023-02-22T07:38:05;8.00;99.90
58413;DHT22;44209;52.952;6.790;2023-02-22T07:40:33;8.00;99.90
58413;DHT22;44209;52.952;6.790;2023-02-22T07:45:34;8.10;99.90
58413;DHT22;44209;52.952;6.790;2023-02-22T07:48:02;8.10;99.90
58413;DHT22;44209;52.952;6.790;2023-02-22T07:50:30;8.10;99.90
58413;DHT22;44209;52.952;6.790;2023-02-22T07:52:58;8.10;99.90
58413;DHT22;44209;52.952;6.790;2023-02-22T07:55:26;8.20;99.90
58413;DHT22;44209;52.952;6.790;2023-02-22T07:57:55;8.20;99.90
58413;DHT22;44209;52.952;6.790;2023-02-22T08:00:30;8.20;99.90
58413;DHT22;44209;52.952;6.790;2023-02-22T08:02:57;8.20;99.90
58413;DHT22;44209;52.952;6.790;2023-02-22T08:05:25;8.20;99.90
58413;DHT22;44209;52.952;6.790;2023-02-22T08:07:52;8.20;99.90
58413;DHT22;44209;52.952;6.790;2023-02-22T08:10:20;8.30;99.90
58413;DHT22;44209;52.952;6.790;2023-02-22T08:12:46;8.30;99.90
58413;DHT22;44209;52.952;6.790;2023-02-22T08:15:20;8.30;99.90
58413;DHT22;44209;52.952;6.790;2023-02-22T08:17:46;8.40;99.90
58413;DHT22;44209;52.952;6.790;2023-02-22T08:20:12;8.40;99.90
58413;DHT22;44209;52.952;6.790;2023-02-22T08:22:41;8.40;99.90
58413;DHT22;44209;52.952;6.790;2023-02-22T08:25:07;8.40;99.90
58413;DHT22;44209;52.952;6.790;2023-02-22T08:27:33;8.40;99.90
58413;DHT22;44209;52.952;6.790;2023-02-22T08:29:58;8.40;99.90
58413;DHT22;44209;52.952;6.790;2023-02-22T08:32:24;8.40;99.90
58413;DHT22;44209;52.952;6.790;2023-02-22T08:34:50;8.40;99.90
58413;DHT22;44209;52.952;6.790;2023-02-22T08:37:16;8.40;99.90
58413;DHT22;44209;52.952;6.790;2023-02-22T08:39:43;8.40;99.90
58413;DHT22;44209;52.952;6.790;2023-02-22T08:42:09;8.40;99.90
58413;DHT22;44209;52.952;6.790;2023-02-22T08:44:36;8.50;99.90
58413;DHT22;44209;52.952;6.790;2023-02-22T08:47:01;8.50;99.90
58413;DHT22;44209;52.952;6.790;2023-02-22T08:49:27;8.50;99.90
58413;DHT22;44209;52.952;6.790;2023-02-22T08:51:53;8.50;99.90
58413;DHT22;44209;52.952;6.790;2023-02-22T08:54:19;8.50;99.90
58413;DHT22;44209;52.952;6.790;2023-02-22T08:56:44;8.60;99.90
58413;DHT22;44209;52.952;6.790;2023-02-22T08:59:10;8.60;99.90
58413;DHT22;44209;52.952;6.790;2023-02-22T09:01:36;8.70;99.90
58413;DHT22;44209;52.952;6.790;2023-02-22T09:04:02;8.70;99.90
58413;DHT22;44209;52.952;6.790;2023-02-22T09:06:28;8.80;99.90
58413;DHT22;44209;52.952;6.790;2023-02-22T09:08:54;8.80;99.90
58413;DHT22;44209;52.952;6.790;2023-02-22T09:11:20;8.80;99.90
58413;DHT22;44209;52.952;6.790;2023-02-22T09:13:46;8.80;99.90
58413;DHT22;44209;52.952;6.790;2023-02-22T09:16:12;8.80;99.90
58413;DHT22;44209;52.952;6.790;2023-02-22T09:18:37;8.90;99.90
58413;DHT22;44209;52.952;6.790;2023-02-22T09:21:04;8.90;99.90
58413;DHT22;44209;52.952;6.790;2023-02-22T09:23:30;8.90;99.90
58413;DHT22;44209;52.952;6.790;2023-02-22T09:25:56;8.90;99.90
58413;DHT22;44209;52.952;6.790;2023-02-22T09:28:23;8.90;99.90
58413;DHT22;44209;52.952;6.790;2023-02-22T09:30:49;9.00;99.90
58413;DHT22;44209;52.952;6.790;2023-02-22T09:33:16;8.90;99.90
58413;DHT22;44209;52.952;6.790;2023-02-22T09:35:44;9.00;99.90
58413;DHT22;44209;52.952;6.790;2023-02-22T09:38:17;9.00;99.90
58413;DHT22;44209;52.952;6.790;2023-02-22T09:41:12;9.00;99.90
58413;DHT22;44209;52.952;6.790;2023-02-22T09:43:58;9.00;99.90
58413;DHT22;44209;52.952;6.790;2023-02-22T09:46:32;9.00;99.90
58413;DHT22;44209;52.952;6.790;2023-02-22T09:52:03;9.10;99.90
58413;DHT22;44209;52.952;6.790;2023-02-22T09:54:47;9.10;99.90
58413;DHT22;44209;52.952;6.790;2023-02-22T09:57:49;9.10;99.90
58413;DHT22;44209;52.952;6.790;2023-02-22T10:00:21;9.20;99.90
58413;DHT22;44209;52.952;6.790;2023-02-22T10:02:53;9.20;99.90
58413;DHT22;44209;52.952;6.790;2023-02-22T10:05:28;9.20;99.90
58413;DHT22;44209;52.952;6.790;2023-02-22T10:08:03;9.10;99.90
58413;DHT22;44209;52.952;6.790;2023-02-22T10:10:34;9.10;99.90
58413;DHT22;44209;52.952;6.790;2023-02-22T10:25:00;8.90;99.90
58413;DHT22;44209;52.952;6.790;2023-02-22T10:27:36;8.80;99.90
58413;DHT22;44209;52.952;6.790;2023-02-22T10:30:29;8.80;99.90
58413;DHT22;44209;52.952;6.790;2023-02-22T10:35:43;8.80;99.90
58413;DHT22;44209;52.952;6.790;2023-02-22T10:43:22;8.80;99.90
58413;DHT22;44209;52.952;6.790;2023-02-22T10:45:54;8.80;99.90
58413;DHT22;44209;52.952;6.790;2023-02-22T10:48:23;8.80;99.90
58413;DHT22;44209;52.952;6.790;2023-02-22T10:50:51;8.80;99.90
58413;DHT22;44209;52.952;6.790;2023-02-22T10:53:18;8.70;99.90
58413;DHT22;44209;52.952;6.790;2023-02-22T10:58:54;8.80;99.90
58413;DHT22;44209;52.952;6.790;2023-02-22T11:03:57;8.80;99.90
58413;DHT22;44209;52.952;6.790;2023-02-22T11:06:23;9.00;99.90
58413;DHT22;44209;52.952;6.790;2023-02-22T11:08:49;9.00;99.90
58413;DHT22;44209;52.952;6.790;2023-02-22T11:11:22;9.00;99.90
58413;DHT22;44209;52.952;6.790;2023-02-22T11:13:54;9.10;99.90
58413;DHT22;44209;52.952;6.790;2023-02-22T11:16:27;9.10;99.90
58413;DHT22;44209;52.952;6.790;2023-02-22T11:22:27;9.10;99.90
58413;DHT22;44209;52.952;6.790;2023-02-22T11:24:59;9.00;99.90
58413;DHT22;44209;52.952;6.790;2023-02-22T11:27:43;9.10;99.90
58413;DHT22;44209;52.952;6.790;2023-02-22T11:30:26;9.10;99.90
58413;DHT22;44209;52.952;6.790;2023-02-22T11:32:57;9.20;99.90
58413;DHT22;44209;52.952;6.790;2023-02-22T11:35:50;9.20;99.90
58413;DHT22;44209;52.952;6.790;2023-02-22T11:38:26;9.30;99.90
58413;DHT22;44209;52.952;6.790;2023-02-22T11:41:12;9.30;99.90
58413;DHT22;44209;52.952;6.790;2023-02-22T11:43:48;9.30;99.90
58413;DHT22;44209;52.952;6.790;2023-02-22T11:49:10;9.30;99.90
58413;DHT22;44209;52.952;6.790;2023-02-22T12:00:43;9.60;99.90
58413;DHT22;44209;52.952;6.790;2023-02-22T12:19:42;9.80;99.90
58413;DHT22;44209;52.952;6.790;2023-02-22T12:24:46;9.80;99.90
58413;DHT22;44209;52.952;6.790;2023-02-22T12:27:17;9.80;99.90
58413;DHT22;44209;52.952;6.790;2023-02-22T12:32:40;9.80;99.90
58413;DHT22;44209;52.952;6.790;2023-02-22T12:35:11;9.80;99.90
58413;DHT22;44209;52.952;6.790;2023-02-22T12:38:00;9.90;99.90
58413;DHT22;44209;52.952;6.790;2023-02-22T12:46:04;10.10;99.90
58413;DHT22;44209;52.952;6.790;2023-02-22T12:48:56;10.10;99.90
58413;DHT22;44209;52.952;6.790;2023-02-22T12:54:28;10.10;99.90
58413;DHT22;44209;52.952;6.790;2023-02-22T12:57:23;10.10;99.90
58413;DHT22;44209;52.952;6.790;2023-02-22T12:59:58;10.00;99.90
58413;DHT22;44209;52.952;6.790;2023-02-22T13:02:31;10.00;99.90
58413;DHT22;44209;52.952;6.790;2023-02-22T13:05:00;10.00;99.90
58413;DHT22;44209;52.952;6.790;2023-02-22T13:13:22;9.90;99.90
58413;DHT22;44209;52.952;6.790;2023-02-22T13:18:35;9.90;99.90
58413;DHT22;44209;52.952;6.790;2023-02-22T13:21:11;9.90;99.90
58413;DHT22;44209;52.952;6.790;2023-02-22T13:23:52;9.90;99.90
58413;DHT22;44209;52.952;6.790;2023-02-22T13:26:51;9.90;99.90
58413;DHT22;44209;52.952;6.790;2023-02-22T13:29:32;10.00;99.90
58413;DHT22;44209;52.952;6.790;2023-02-22T13:37:52;10.10;99.90
58413;DHT22;44209;52.952;6.790;2023-02-22T13:43:18;10.20;99.90
58413;DHT22;44209;52.952;6.790;2023-02-22T13:51:47;10.30;99.90
58413;DHT22;44209;52.952;6.790;2023-02-22T13:56:43;10.30;99.90
58413;DHT22;44209;52.952;6.790;2023-02-22T13:59:30;10.30;99.90
58413;DHT22;44209;52.952;6.790;2023-02-22T14:01:58;10.40;99.90
58413;DHT22;44209;52.952;6.790;2023-02-22T14:06:54;10.50;99.90
58413;DHT22;44209;52.952;6.790;2023-02-22T14:09:52;10.50;99.90
58413;DHT22;44209;52.952;6.790;2023-02-22T14:17:41;10.50;99.90
58413;DHT22;44209;52.952;6.790;2023-02-22T14:22:41;10.60;99.90
58413;DHT22;44209;52.952;6.790;2023-02-22T14:25:39;10.60;99.90
58413;DHT22;44209;52.952;6.790;2023-02-22T14:28:09;10.60;99.90
58413;DHT22;44209;52.952;6.790;2023-02-22T14:34:09;10.60;99.90
58413;DHT22;44209;52.952;6.790;2023-02-22T14:36:58;10.50;99.90
58413;DHT22;44209;52.952;6.790;2023-02-22T14:42:34;10.40;99.90
58413;DHT22;44209;52.952;6.790;2023-02-22T14:50:23;10.40;99.90
58413;DHT22;44209;52.952;6.790;2023-02-22T14:55:46;10.30;99.90
58413;DHT22;44209;52.952;6.790;2023-02-22T14:58:35;10.30;99.90
58413;DHT22;44209;52.952;6.790;2023-02-22T15:01:38;10.30;99.90
58413;DHT22;44209;52.952;6.790;2023-02-22T15:04:28;10.30;99.90
58413;DHT22;44209;52.952;6.790;2023-02-22T15:06:58;10.30;99.90
58413;DHT22;44209;52.952;6.790;2023-02-22T15:09:29;10.30;99.90
58413;DHT22;44209;52.952;6.790;2023-02-22T15:14:28;10.30;99.90
58413;DHT22;44209;52.952;6.790;2023-02-22T15:16:58;10.20;99.90
58413;DHT22;44209;52.952;6.790;2023-02-22T15:19:30;10.20;99.90
58413;DHT22;44209;52.952;6.790;2023-02-22T15:21:58;10.20;99.90
58413;DHT22;44209;52.952;6.790;2023-02-22T15:24:36;10.20;99.90
58413;DHT22;44209;52.952;6.790;2023-02-22T15:27:09;10.10;99.90
58413;DHT22;44209;52.952;6.790;2023-02-22T15:29:39;10.10;99.90
58413;DHT22;44209;52.952;6.790;2023-02-22T15:32:32;10.10;99.90
58413;DHT22;44209;52.952;6.790;2023-02-22T15:35:26;10.10;99.90
58413;DHT22;44209;52.952;6.790;2023-02-22T15:40:29;10.10;99.90
58413;DHT22;44209;52.952;6.790;2023-02-22T15:43:04;10.00;99.90
58413;DHT22;44209;52.952;6.790;2023-02-22T15:45:33;10.00;99.90
58413;DHT22;44209;52.952;6.790;2023-02-22T15:48:00;10.00;99.90
58413;DHT22;44209;52.952;6.790;2023-02-22T15:50:31;10.00;99.90
58413;DHT22;44209;52.952;6.790;2023-02-22T15:55:44;9.90;99.90
58413;DHT22;44209;52.952;6.790;2023-02-22T16:00:42;9.90;99.90
58413;DHT22;44209;52.952;6.790;2023-02-22T16:03:11;9.90;99.90
58413;DHT22;44209;52.952;6.790;2023-02-22T16:05:43;9.90;99.90
58413;DHT22;44209;52.952;6.790;2023-02-22T16:08:32;9.90;99.90
58413;DHT22;44209;52.952;6.790;2023-02-22T16:11:23;9.80;99.90
58413;DHT22;44209;52.952;6.790;2023-02-22T16:13:57;9.80;99.90
58413;DHT22;44209;52.952;6.790;2023-02-22T16:16:36;9.80;99.90
58413;DHT22;44209;52.952;6.790;2023-02-22T16:19:27;9.80;99.90
58413;DHT22;44209;52.952;6.790;2023-02-22T16:22:00;9.80;99.90
58413;DHT22;44209;52.952;6.790;2023-02-22T16:24:32;9.80;99.90
58413;DHT22;44209;52.952;6.790;2023-02-22T16:29:44;9.70;99.90
58413;DHT22;44209;52.952;6.790;2023-02-22T16:32:24;9.70;99.90
58413;DHT22;44209;52.952;6.790;2023-02-22T16:34:50;9.60;99.90
58413;DHT22;44209;52.952;6.790;2023-02-22T16:37:20;9.60;99.90
58413;DHT22;44209;52.952;6.790;2023-02-22T16:39:47;9.60;99.90
58413;DHT22;44209;52.952;6.790;2023-02-22T16:42:17;9.60;99.90
58413;DHT22;44209;52.952;6.790;2023-02-22T16:44:50;9.60;99.90
58413;DHT22;44209;52.952;6.790;2023-02-22T16:47:16;9.60;99.90
58413;DHT22;44209;52.952;6.790;2023-02-22T16:49:41;9.60;99.90
58413;DHT22;44209;52.952;6.790;2023-02-22T16:52:07;9.60;99.90
58413;DHT22;44209;52.952;6.790;2023-02-22T16:54:40;9.60;99.90
58413;DHT22;44209;52.952;6.790;2023-02-22T16:57:15;9.60;99.90
58413;DHT22;44209;52.952;6.790;2023-02-22T16:59:42;9.50;99.90
58413;DHT22;44209;52.952;6.790;2023-02-22T17:02:12;9.50;99.90
58413;DHT22;44209;52.952;6.790;2023-02-22T17:04:39;9.50;99.90
58413;DHT22;44209;52.952;6.790;2023-02-22T17:07:06;9.50;99.90
58413;DHT22;44209;52.952;6.790;2023-02-22T17:09:34;9.50;99.90
58413;DHT22;44209;52.952;6.790;2023-02-22T17:12:00;9.50;99.90
58413;DHT22;44209;52.952;6.790;2023-02-22T17:14:32;9.50;99.90
58413;DHT22;44209;52.952;6.790;2023-02-22T17:16:58;9.40;99.90
58413;DHT22;44209;52.952;6.790;2023-02-22T17:19:25;9.40;99.90
58413;DHT22;44209;52.952;6.790;2023-02-22T17:21:51;9.40;99.90
58413;DHT22;44209;52.952;6.790;2023-02-22T17:24:19;9.40;99.90
58413;DHT22;44209;52.952;6.790;2023-02-22T17:26:47;9.40;99.90
58413;DHT22;44209;52.952;6.790;2023-02-22T17:29:14;9.40;99.90
58413;DHT22;44209;52.952;6.790;2023-02-22T17:31:41;9.30;99.90
58413;DHT22;44209;52.952;6.790;2023-02-22T17:34:07;9.30;99.90
58413;DHT22;44209;52.952;6.790;2023-02-22T17:36:34;9.30;99.90
58413;DHT22;44209;52.952;6.790;2023-02-22T17:39:03;9.30;99.90
58413;DHT22;44209;52.952;6.790;2023-02-22T17:41:29;9.30;99.90
58413;DHT22;44209;52.952;6.790;2023-02-22T17:43:55;9.30;99.90
58413;DHT22;44209;52.952;6.790;2023-02-22T17:46:23;9.30;99.90
58413;DHT22;44209;52.952;6.790;2023-02-22T17:48:50;9.30;99.90
58413;DHT22;44209;52.952;6.790;2023-02-22T17:51:19;9.30;99.90
58413;DHT22;44209;52.952;6.790;2023-02-22T17:53:45;9.30;99.90
58413;DHT22;44209;52.952;6.790;2023-02-22T17:56:15;9.30;99.90
58413;DHT22;44209;52.952;6.790;2023-02-22T17:58:44;9.20;99.90
58413;DHT22;44209;52.952;6.790;2023-02-22T18:01:28;9.20;99.90
58413;DHT22;44209;52.952;6.790;2023-02-22T18:03:56;9.30;99.90
58413;DHT22;44209;52.952;6.790;2023-02-22T18:06:23;9.20;99.90
58413;DHT22;44209;52.952;6.790;2023-02-22T18:08:53;9.20;99.90
58413;DHT22;44209;52.952;6.790;2023-02-22T18:11:19;9.20;99.90
58413;DHT22;44209;52.952;6.790;2023-02-22T18:13:49;9.20;99.90
58413;DHT22;44209;52.952;6.790;2023-02-22T18:16:15;9.20;99.90
58413;DHT22;44209;52.952;6.790;2023-02-22T18:18:40;9.10;99.90
58413;DHT22;44209;52.952;6.790;2023-02-22T18:21:08;9.20;99.90
58413;DHT22;44209;52.952;6.790;2023-02-22T18:23:34;9.10;99.90
58413;DHT22;44209;52.952;6.790;2023-02-22T18:26:00;9.10;99.90
58413;DHT22;44209;52.952;6.790;2023-02-22T18:28:26;9.10;99.90
58413;DHT22;44209;52.952;6.790;2023-02-22T18:30:52;9.10;99.90
58413;DHT22;44209;52.952;6.790;2023-02-22T18:33:18;9.10;99.90
58413;DHT22;44209;52.952;6.790;2023-02-22T18:35:48;9.10;99.90
58413;DHT22;44209;52.952;6.790;2023-02-22T18:38:27;9.10;99.90
58413;DHT22;44209;52.952;6.790;2023-02-22T18:41:05;9.10;99.90
58413;DHT22;44209;52.952;6.790;2023-02-22T18:43:37;9.10;99.90
58413;DHT22;44209;52.952;6.790;2023-02-22T18:46:17;9.10;99.90
58413;DHT22;44209;52.952;6.790;2023-02-22T18:48:45;9.10;99.90
58413;DHT22;44209;52.952;6.790;2023-02-22T18:51:23;9.10;99.90
58413;DHT22;44209;52.952;6.790;2023-02-22T18:53:50;9.00;99.90
58413;DHT22;44209;52.952;6.790;2023-02-22T18:56:24;9.00;99.90